createdAt,value
2018-07-02T00:02:37.940Z,14.91
2018-07-02T00:05:52.638Z,14.91
2018-07-02T00:08:55.831Z,15.01
2018-07-02T00:11:59.062Z,14.50
2018-07-02T00:15:02.344Z,14.93
2018-07-02T00:18:05.605Z,14.75
2018-07-02T00:21:08.813Z,14.81
2018-07-02T00:24:11.994Z,14.90
2018-07-02T00:27:15.159Z,14.55
2018-07-02T00:30:18.274Z,14.64
2018-07-02T00:33:21.413Z,14.26
2018-07-02T00:36:24.580Z,14.33
2018-07-02T00:39:27.837Z,14.42
2018-07-02T00:42:31.004Z,14.26
2018-07-02T00:45:34.155Z,14.21
2018-07-02T00:48:37.361Z,14.12
2018-07-02T00:51:40.535Z,14.10
2018-07-02T00:54:43.712Z,13.91
2018-07-02T00:57:46.887Z,13.74
2018-07-02T01:00:50.199Z,13.70
2018-07-02T01:03:53.409Z,13.58
2018-07-02T01:06:56.585Z,13.51
2018-07-02T01:09:59.847Z,13.87
2018-07-02T01:13:03.073Z,14.09
2018-07-02T01:16:06.230Z,14.07
2018-07-02T01:19:09.426Z,13.87
2018-07-02T01:22:12.601Z,13.55
2018-07-02T01:25:15.788Z,13.41
2018-07-02T01:28:19.012Z,13.20
2018-07-02T01:31:22.209Z,13.20
2018-07-02T01:34:25.375Z,13.20
2018-07-02T01:37:28.555Z,13.23
2018-07-02T01:40:31.686Z,13.34
2018-07-02T01:43:34.858Z,13.27
2018-07-02T01:46:38.029Z,13.27
2018-07-02T01:49:41.194Z,13.08
2018-07-02T01:52:44.317Z,12.86
2018-07-02T01:55:47.541Z,12.60
2018-07-02T01:58:50.726Z,12.72
2018-07-02T02:01:53.819Z,12.91
2018-07-02T02:04:57.033Z,12.96
2018-07-02T02:08:00.226Z,12.99
2018-07-02T02:11:03.514Z,12.82
2018-07-02T02:14:07.017Z,13.12
2018-07-02T02:17:10.227Z,12.97
2018-07-02T02:20:13.470Z,13.14
2018-07-02T02:23:17.234Z,13.01
2018-07-02T02:26:20.513Z,12.95
2018-07-02T02:29:23.674Z,12.87
2018-07-02T02:32:26.862Z,12.86
2018-07-02T02:35:30.389Z,12.38
2018-07-02T02:38:33.600Z,12.76
2018-07-02T02:41:36.774Z,12.76
2018-07-02T02:44:39.953Z,12.60
2018-07-02T02:47:43.108Z,12.58
2018-07-02T02:50:46.399Z,12.65
2018-07-02T02:53:49.570Z,12.55
2018-07-02T02:56:52.753Z,12.59
2018-07-02T02:59:55.984Z,12.54
2018-07-02T03:02:59.247Z,12.74
2018-07-02T03:06:02.385Z,12.46
2018-07-02T03:09:07.306Z,12.57
2018-07-02T03:12:10.496Z,12.52
2018-07-02T03:15:13.685Z,12.72
2018-07-02T03:18:16.830Z,12.34
2018-07-02T03:21:19.973Z,12.53
2018-07-02T03:24:23.183Z,12.48
2018-07-02T03:27:26.372Z,12.47
2018-07-02T03:30:29.558Z,12.29
2018-07-02T03:33:32.893Z,12.49
2018-07-02T03:36:36.041Z,12.53
2018-07-02T03:39:39.191Z,12.53
2018-07-02T03:42:42.340Z,12.59
2018-07-02T03:45:45.536Z,12.49
2018-07-02T03:48:48.676Z,12.35
2018-07-02T03:51:51.821Z,12.77
2018-07-02T03:54:55.013Z,12.14
2018-07-02T03:57:58.147Z,12.36
2018-07-02T04:01:01.383Z,12.59
2018-07-02T04:04:04.560Z,12.41
2018-07-02T04:07:07.747Z,12.52
2018-07-02T04:10:10.942Z,12.38
2018-07-02T04:13:14.126Z,12.32
2018-07-02T04:16:17.364Z,12.55
2018-07-02T04:19:20.510Z,12.55
2018-07-02T04:22:23.661Z,12.65
2018-07-02T04:25:26.858Z,12.44
2018-07-02T04:28:30.082Z,12.53
2018-07-02T04:31:33.298Z,12.79
2018-07-02T04:34:36.494Z,12.89
2018-07-02T04:37:39.692Z,12.93
2018-07-02T04:40:42.882Z,12.88
2018-07-02T04:43:46.091Z,12.92
2018-07-02T04:46:49.284Z,12.98
2018-07-02T04:49:52.504Z,13.06
2018-07-02T04:52:55.646Z,13.16
2018-07-02T04:55:58.850Z,13.25
2018-07-02T04:59:03.001Z,13.27
2018-07-02T05:02:07.358Z,13.30
2018-07-02T05:05:10.526Z,13.20
2018-07-02T05:08:13.677Z,13.34
2018-07-02T05:11:16.882Z,13.40
2018-07-02T05:14:20.061Z,13.39
2018-07-02T05:17:23.347Z,13.45
2018-07-02T05:20:26.584Z,13.58
2018-07-02T05:23:29.852Z,13.57
2018-07-02T05:26:33.345Z,13.64
2018-07-02T05:29:36.625Z,13.72
2018-07-02T05:32:39.822Z,13.81
2018-07-02T05:35:43.110Z,13.90
2018-07-02T05:38:46.369Z,13.93
2018-07-02T05:41:49.532Z,14.05
2018-07-02T05:44:52.828Z,14.17
2018-07-02T05:47:56.210Z,14.22
2018-07-02T05:50:59.402Z,14.25
2018-07-02T05:54:02.562Z,14.33
2018-07-02T05:57:05.975Z,14.38
2018-07-02T06:00:09.771Z,14.45
2018-07-02T06:03:12.937Z,14.56
2018-07-02T06:06:16.569Z,14.64
2018-07-02T06:09:20.613Z,14.65
2018-07-02T06:12:23.803Z,14.76
2018-07-02T06:15:27.021Z,14.79
2018-07-02T06:18:30.213Z,14.87
2018-07-02T06:21:33.403Z,14.97
2018-07-02T06:24:36.543Z,15.07
2018-07-02T06:27:39.721Z,15.24
2018-07-02T06:30:42.837Z,15.29
2018-07-02T06:33:46.003Z,15.41
2018-07-02T06:36:49.264Z,15.39
2018-07-02T06:39:52.414Z,15.53
2018-07-02T06:42:55.600Z,15.67
2018-07-02T06:45:58.825Z,15.67
2018-07-02T06:49:02.468Z,15.73
2018-07-02T06:52:05.669Z,15.76
2018-07-02T06:55:08.931Z,15.85
2018-07-02T06:58:12.181Z,15.91
2018-07-02T07:01:15.326Z,16.08
2018-07-02T07:04:18.618Z,16.30
2018-07-02T07:07:21.850Z,16.53
2018-07-02T07:10:25.103Z,16.77
2018-07-02T07:13:28.306Z,17.07
2018-07-02T07:16:31.634Z,17.24
2018-07-02T07:19:36.421Z,17.43
2018-07-02T07:22:39.919Z,17.56
2018-07-02T07:25:43.617Z,17.70
2018-07-02T07:28:47.089Z,17.84
2018-07-02T07:31:50.550Z,17.87
2018-07-02T07:34:54.067Z,17.88
2018-07-02T07:37:57.485Z,18.01
2018-07-02T07:41:00.777Z,17.93
2018-07-02T07:44:04.180Z,17.87
2018-07-02T07:47:08.219Z,17.90
2018-07-02T07:50:12.542Z,18.15
2018-07-02T07:53:16.021Z,18.25
2018-07-02T07:56:20.342Z,18.48
2018-07-02T07:59:25.121Z,18.49
2018-07-02T08:02:30.475Z,18.75
2018-07-02T08:05:34.296Z,18.87
2018-07-02T08:08:37.654Z,18.90
2018-07-02T08:11:41.897Z,19.03
2018-07-02T08:14:46.795Z,19.51
2018-07-02T08:17:50.072Z,19.49
2018-07-02T08:20:53.312Z,19.53
2018-07-02T08:23:56.563Z,19.45
2018-07-02T08:26:59.860Z,19.65
2018-07-02T08:30:03.222Z,19.80
2018-07-02T08:33:06.416Z,20.10
2018-07-02T08:36:09.751Z,20.33
2018-07-02T08:39:13.384Z,20.18
2018-07-02T08:42:16.861Z,20.49
2018-07-02T08:45:20.228Z,20.41
2018-07-02T08:48:23.678Z,20.59
2018-07-02T08:51:26.883Z,20.75
2018-07-02T08:54:30.266Z,21.11
2018-07-02T08:57:33.482Z,21.31
2018-07-02T09:00:36.924Z,21.34
2018-07-02T09:03:40.329Z,21.57
2018-07-02T09:06:43.564Z,21.93
2018-07-02T09:09:47.790Z,21.86
2018-07-02T09:12:51.057Z,22.02
2018-07-02T09:15:54.295Z,22.20
2018-07-02T09:18:57.490Z,22.08
2018-07-02T09:22:00.950Z,21.88
2018-07-02T09:25:05.865Z,22.12
2018-07-02T09:28:09.306Z,22.13
2018-07-02T09:31:12.901Z,22.49
2018-07-02T09:34:16.453Z,22.70
2018-07-02T09:37:21.041Z,22.99
2018-07-02T09:40:25.446Z,23.15
2018-07-02T09:43:29.901Z,22.98
2018-07-02T09:46:33.905Z,23.32
2018-07-02T09:49:37.735Z,23.69
2018-07-02T09:52:41.636Z,23.91
2018-07-02T09:55:45.314Z,24.27
2018-07-02T09:58:49.671Z,24.61
2018-07-02T10:01:53.550Z,24.86
2018-07-02T10:04:57.359Z,24.40
2018-07-02T10:08:00.858Z,24.04
2018-07-02T10:11:04.284Z,23.86
2018-07-02T10:14:08.187Z,23.40
2018-07-02T10:17:11.901Z,23.46
2018-07-02T10:20:15.910Z,23.14
2018-07-02T10:23:19.400Z,23.30
2018-07-02T10:26:22.941Z,23.78
2018-07-02T10:29:26.302Z,23.92
2018-07-02T10:32:29.684Z,23.54
2018-07-02T10:35:33.144Z,23.70
2018-07-02T10:38:36.524Z,23.93
2018-07-02T10:41:39.811Z,24.20
2018-07-02T10:44:43.361Z,24.07
2018-07-02T10:47:46.665Z,24.01
2018-07-02T10:50:50.016Z,23.75
2018-07-02T10:53:53.517Z,23.41
2018-07-02T10:56:57.004Z,23.47
2018-07-02T11:00:00.387Z,23.39
2018-07-02T11:03:03.683Z,23.26
2018-07-02T11:06:06.977Z,22.99
2018-07-02T11:09:10.279Z,22.73
2018-07-02T11:12:13.514Z,22.45
2018-07-02T11:15:16.925Z,22.56
2018-07-02T11:18:20.419Z,22.94
2018-07-02T11:21:23.696Z,23.52
2018-07-02T11:24:26.992Z,24.25
2018-07-02T11:27:31.261Z,23.47
2018-07-02T11:30:39.609Z,24.31
2018-07-02T11:33:43.132Z,24.08
2018-07-02T11:36:46.767Z,24.00
2018-07-02T11:39:51.184Z,22.81
2018-07-02T11:42:55.030Z,22.59
2018-07-02T11:45:58.670Z,22.85
2018-07-02T11:49:02.580Z,22.80
2018-07-02T11:52:06.230Z,23.05
2018-07-02T11:55:11.119Z,23.45
2018-07-02T11:58:15.785Z,23.38
2018-07-02T12:01:19.222Z,23.59
2018-07-02T12:04:22.536Z,24.13
2018-07-02T12:07:26.599Z,24.52
2018-07-02T12:10:29.921Z,24.64
2018-07-02T12:13:33.601Z,24.61
2018-07-02T12:16:37.012Z,24.66
2018-07-02T12:19:40.258Z,25.14
2018-07-02T12:22:43.512Z,25.07
2018-07-02T12:25:46.896Z,24.94
2018-07-02T12:28:50.258Z,25.47
2018-07-02T12:31:53.481Z,25.54
2018-07-02T12:34:56.680Z,25.40
2018-07-02T12:37:59.939Z,25.24
2018-07-02T12:41:03.298Z,24.55
2018-07-02T12:44:06.631Z,24.91
2018-07-02T12:47:09.924Z,24.89
2018-07-02T12:50:13.246Z,25.30
2018-07-02T12:53:16.459Z,25.02
2018-07-02T12:56:19.726Z,25.65
2018-07-02T12:59:23.579Z,25.66
2018-07-02T13:02:26.946Z,25.85
2018-07-02T13:05:30.377Z,25.80
2018-07-02T13:08:33.612Z,25.40
2018-07-02T13:11:36.991Z,24.66
2018-07-02T13:14:41.493Z,25.25
2018-07-02T13:17:45.765Z,26.10
2018-07-02T13:20:49.279Z,25.88
2018-07-02T13:23:52.774Z,26.22
2018-07-02T13:26:56.096Z,25.76
2018-07-02T13:29:59.316Z,25.95
2018-07-02T13:33:02.723Z,26.09
2018-07-02T13:36:06.029Z,26.19
2018-07-02T13:39:09.528Z,26.21
2018-07-02T13:42:12.858Z,26.12
2018-07-02T13:45:16.178Z,26.11
2018-07-02T13:48:19.498Z,25.90
2018-07-02T13:51:22.844Z,25.44
2018-07-02T13:54:26.226Z,25.76
2018-07-02T13:57:29.698Z,25.42
2018-07-02T14:00:33.348Z,25.69
2018-07-02T14:03:36.880Z,25.60
2018-07-02T14:06:40.895Z,25.67
2018-07-02T14:09:45.187Z,25.74
2018-07-02T14:12:48.925Z,26.04
2018-07-02T14:15:52.677Z,26.12
2018-07-02T14:18:56.232Z,25.94
2018-07-02T14:22:02.725Z,26.24
2018-07-02T14:25:06.600Z,25.98
2018-07-02T14:28:10.900Z,26.21
2018-07-02T14:31:14.836Z,26.56
2018-07-02T14:34:18.538Z,26.48
2018-07-02T14:37:22.645Z,26.43
2018-07-02T14:40:26.913Z,26.57
2018-07-02T14:43:30.576Z,25.66
2018-07-02T14:46:34.512Z,26.12
2018-07-02T14:49:38.497Z,25.45
2018-07-02T14:52:41.875Z,25.65
2018-07-02T14:55:45.217Z,25.74
2018-07-02T14:58:48.587Z,26.05
2018-07-02T15:01:51.902Z,26.02
2018-07-02T15:04:55.900Z,25.95
2018-07-02T15:07:59.947Z,25.97
2018-07-02T15:11:04.620Z,26.15
2018-07-02T15:14:09.350Z,26.01
2018-07-02T15:17:12.941Z,25.62
2018-07-02T15:20:16.642Z,25.31
2018-07-02T15:23:20.138Z,25.33
2018-07-02T15:26:23.700Z,25.90
2018-07-02T15:29:27.469Z,25.93
2018-07-02T15:32:31.206Z,25.85
2018-07-02T15:35:34.656Z,26.03
2018-07-02T15:38:38.006Z,25.72
2018-07-02T15:41:41.508Z,25.80
2018-07-02T15:44:44.994Z,25.94
2018-07-02T15:47:48.463Z,26.07
2018-07-02T15:50:52.114Z,26.01
2018-07-02T15:53:55.568Z,25.29
2018-07-02T15:56:59.065Z,25.34
2018-07-02T16:00:02.984Z,25.31
2018-07-02T16:03:06.456Z,25.20
2018-07-02T16:06:09.986Z,25.10
2018-07-02T16:09:13.541Z,25.03
2018-07-02T16:12:17.317Z,25.21
2018-07-02T16:15:20.726Z,25.24
2018-07-02T16:18:24.297Z,25.36
2018-07-02T16:21:27.637Z,25.16
2018-07-02T16:24:31.095Z,25.24
2018-07-02T16:27:34.554Z,25.06
2018-07-02T16:30:38.049Z,24.94
2018-07-02T16:33:41.619Z,24.57
2018-07-02T16:36:45.078Z,24.69
2018-07-02T16:39:49.038Z,24.57
2018-07-02T16:42:52.616Z,24.40
2018-07-02T16:45:56.070Z,24.12
2018-07-02T16:48:59.618Z,24.11
2018-07-02T16:52:03.272Z,24.31
2018-07-02T16:55:06.962Z,24.44
2018-07-02T16:58:10.570Z,24.60
2018-07-02T17:01:14.617Z,24.58
2018-07-02T17:04:18.304Z,24.55
2018-07-02T17:07:22.273Z,24.43
2018-07-02T17:10:26.152Z,24.49
2018-07-02T17:13:29.626Z,24.49
2018-07-02T17:16:33.254Z,24.26
2018-07-02T17:19:37.987Z,24.34
2018-07-02T17:22:42.301Z,24.17
2018-07-02T17:25:45.927Z,24.11
2018-07-02T17:28:51.158Z,23.95
2018-07-02T17:31:54.854Z,23.78
2018-07-02T17:34:58.698Z,23.76
2018-07-02T17:38:02.470Z,23.70
2018-07-02T17:41:06.358Z,23.56
2018-07-02T17:44:10.248Z,23.52
2018-07-02T17:47:13.946Z,23.58
2018-07-02T17:50:17.887Z,23.34
2018-07-02T17:53:21.566Z,23.26
2018-07-02T17:56:25.437Z,23.32
2018-07-02T17:59:29.068Z,23.11
2018-07-02T18:02:33.117Z,23.18
2018-07-02T18:05:36.755Z,23.08
2018-07-02T18:08:40.333Z,23.26
2018-07-02T18:11:44.048Z,23.20
2018-07-02T18:14:47.816Z,23.17
2018-07-02T18:17:51.613Z,23.24
2018-07-02T18:20:57.132Z,23.20
2018-07-02T18:24:00.633Z,23.24
2018-07-02T18:27:04.161Z,23.14
2018-07-02T18:30:07.865Z,23.14
2018-07-02T18:33:11.459Z,23.06
2018-07-02T18:36:15.531Z,23.07
2018-07-02T18:39:19.152Z,23.05
2018-07-02T18:42:31.119Z,23.05
2018-07-02T18:45:35.840Z,22.99
2018-07-02T18:48:39.604Z,23.02
2018-07-02T18:51:43.893Z,22.87
2018-07-02T18:54:47.740Z,22.86
2018-07-02T18:57:51.510Z,22.74
2018-07-02T19:00:55.257Z,22.72
2018-07-02T19:04:02.345Z,22.60
2018-07-02T19:07:06.457Z,22.56
2018-07-02T19:10:10.663Z,22.48
2018-07-02T19:13:14.551Z,22.48
2018-07-02T19:16:18.502Z,22.42
2018-07-02T19:19:22.224Z,22.31
2018-07-02T19:22:25.911Z,22.31
2018-07-02T19:25:29.476Z,22.26
2018-07-02T19:28:33.384Z,22.11
2018-07-02T19:31:37.081Z,22.10
2018-07-02T19:34:40.778Z,22.06
2018-07-02T19:37:45.359Z,21.99
2018-07-02T19:40:50.123Z,21.94
2018-07-02T19:43:54.447Z,21.88
2018-07-02T19:46:58.331Z,21.74
2018-07-02T19:50:03.785Z,21.73
2018-07-02T19:53:09.692Z,21.69
2018-07-02T19:56:15.008Z,21.58
2018-07-02T19:59:19.939Z,21.45
2018-07-02T20:02:24.353Z,21.42
2018-07-02T20:05:29.541Z,21.48
2018-07-02T20:08:34.107Z,21.43
2018-07-02T20:11:39.556Z,21.30
2018-07-02T20:14:44.436Z,21.14
2018-07-02T20:17:49.247Z,21.04
2018-07-02T20:20:53.213Z,21.00
2018-07-02T20:23:56.945Z,21.04
2018-07-02T20:27:00.430Z,20.94
2018-07-02T20:30:04.280Z,21.08
2018-07-02T20:33:07.930Z,20.93
2018-07-02T20:36:11.543Z,20.70
2018-07-02T20:39:14.962Z,20.74
2018-07-02T20:42:18.312Z,20.49
2018-07-02T20:45:21.789Z,20.54
2018-07-02T20:48:25.388Z,20.43
2018-07-02T20:51:28.820Z,20.31
2018-07-02T20:54:32.332Z,20.11
2018-07-02T20:57:36.307Z,20.03
2018-07-02T21:00:39.786Z,20.36
2018-07-02T21:03:43.135Z,20.28
2018-07-02T21:06:46.494Z,20.36
2018-07-02T21:09:49.826Z,20.29
2018-07-02T21:12:53.344Z,20.18
2018-07-02T21:15:56.777Z,20.11
2018-07-02T21:19:00.901Z,20.20
2018-07-02T21:22:05.463Z,20.22
2018-07-02T21:25:09.056Z,20.14
2018-07-02T21:28:12.717Z,20.01
2018-07-02T21:31:16.051Z,20.13
2018-07-02T21:34:19.353Z,20.03
2018-07-02T21:37:22.633Z,19.99
2018-07-02T21:40:25.980Z,19.83
2018-07-02T21:43:29.189Z,19.75
2018-07-02T21:46:32.889Z,19.70
2018-07-02T21:49:36.143Z,19.74
2018-07-02T21:52:39.429Z,19.62
2018-07-02T21:55:43.419Z,19.75
2018-07-02T21:58:47.602Z,19.76
2018-07-02T22:01:51.190Z,19.70
2018-07-02T22:04:57.260Z,19.52
2018-07-02T22:08:00.649Z,19.45
2018-07-02T22:11:03.996Z,19.33
2018-07-02T22:14:07.293Z,19.30
2018-07-02T22:17:10.592Z,19.20
2018-07-02T22:20:13.904Z,19.22
2018-07-02T22:23:17.171Z,19.12
2018-07-02T22:26:20.360Z,19.16
2018-07-02T22:29:23.553Z,19.07
2018-07-02T22:32:26.797Z,19.12
2018-07-02T22:35:30.124Z,18.92
2018-07-02T22:38:33.301Z,18.71
2018-07-02T22:41:36.552Z,18.78
2018-07-02T22:44:39.755Z,18.87
2018-07-02T22:47:42.970Z,18.87
2018-07-02T22:50:46.146Z,18.82
2018-07-02T22:53:49.326Z,18.72
2018-07-02T22:56:52.495Z,18.72
2018-07-02T22:59:55.663Z,18.68
2018-07-02T23:02:58.840Z,18.64
2018-07-02T23:06:01.994Z,18.47
2018-07-02T23:09:07.855Z,18.48
2018-07-02T23:12:11.016Z,18.48
2018-07-02T23:15:14.237Z,18.51
2018-07-02T23:18:17.469Z,18.33
2018-07-02T23:21:20.647Z,18.22
2018-07-02T23:24:23.949Z,18.27
2018-07-02T23:27:27.124Z,18.19
2018-07-02T23:30:32.065Z,18.22
2018-07-02T23:33:35.451Z,18.15
2018-07-02T23:36:38.699Z,18.14
2018-07-02T23:39:41.906Z,18.12
2018-07-02T23:42:45.093Z,18.13
2018-07-02T23:45:48.225Z,18.14
2018-07-02T23:48:51.385Z,18.03
2018-07-02T23:51:54.556Z,18.01
2018-07-02T23:54:57.759Z,18.00
2018-07-02T23:58:00.885Z,18.06
